Terminal Aerodrome Forecast
Issued by NWS

Home | Current Version | Previous Version | Text Only | Print | Product List | Glossary On
Versions: 1 2 3 4 5 6 7 8 9 10 11 12 13
000
FTUS44 KLIX 221727
TAFMSY
TAF
KMSY 221727Z 2218/2318 05004KT P6SM FEW030
     FM221930 05007KT P6SM VCTS SCT040CB
     FM222200 09007KT P6SM SCT040
     FM230100 VRB03KT P6SM FEW015 SCT250
     FM231400 05007KT P6SM FEW030=

USA.gov is the U.S. government's official web portal to all federal, state and local government web resources and services.